sensor_id;sensor_type;location;lat;lon;timestamp;P1;durP1;ratioP1;P2;durP2;ratioP2
45382;SDS011;42455;51.660;5.824;2023-03-31T00:05:04;4.0;;;2.0;;
45382;SDS011;42455;51.660;5.824;2023-03-31T00:10:10;4.0;;;2.0;;
45382;SDS011;42455;51.660;5.824;2023-03-31T00:15:17;6.0;;;2.0;;
45382;SDS011;42455;51.660;5.824;2023-03-31T00:20:23;6.0;;;2.0;;
45382;SDS011;42455;51.660;5.824;2023-03-31T00:25:29;7.0;;;2.5;;
45382;SDS011;42455;51.660;5.824;2023-03-31T00:30:35;6.0;;;2.0;;
45382;SDS011;42455;51.660;5.824;2023-03-31T00:35:41;5.0;;;2.0;;
45382;SDS011;42455;51.660;5.824;2023-03-31T00:40:48;6.5;;;2.0;;
45382;SDS011;42455;51.660;5.824;2023-03-31T00:45:54;5.0;;;2.0;;
45382;SDS011;42455;51.660;5.824;2023-03-31T00:51:01;5.0;;;2.0;;
45382;SDS011;42455;51.660;5.824;2023-03-31T00:56:08;6.0;;;2.0;;
45382;SDS011;42455;51.660;5.824;2023-03-31T01:01:18;6.0;;;2.0;;
45382;SDS011;42455;51.660;5.824;2023-03-31T01:06:19;6.0;;;2.0;;
45382;SDS011;42455;51.660;5.824;2023-03-31T01:11:25;5.0;;;2.0;;
45382;SDS011;42455;51.660;5.824;2023-03-31T01:16:30;6.0;;;2.0;;
45382;SDS011;42455;51.660;5.824;2023-03-31T01:23:00;4.0;;;2.0;;
45382;SDS011;42455;51.660;5.824;2023-03-31T01:29:29;6.0;;;2.0;;
45382;SDS011;42455;51.660;5.824;2023-03-31T01:37:16;6.0;;;2.0;;
45382;SDS011;42455;51.660;5.824;2023-03-31T01:42:35;6.0;;;2.0;;
45382;SDS011;42455;51.660;5.824;2023-03-31T01:47:07;5.5;;;2.0;;
45382;SDS011;42455;51.660;5.824;2023-03-31T01:51:08;5.0;;;2.0;;
45382;SDS011;42455;51.660;5.824;2023-03-31T01:55:19;5.0;;;2.0;;
45382;SDS011;42455;51.660;5.824;2023-03-31T01:58:52;5.0;;;2.0;;
45382;SDS011;42455;51.660;5.824;2023-03-31T02:02:28;6.0;;;2.0;;
45382;SDS011;42455;51.660;5.824;2023-03-31T02:07:39;7.0;;;2.0;;
45382;SDS011;42455;51.660;5.824;2023-03-31T02:12:38;6.0;;;2.0;;
45382;SDS011;42455;51.660;5.824;2023-03-31T02:17:44;6.0;;;2.0;;
45382;SDS011;42455;51.660;5.824;2023-03-31T02:22:51;8.0;;;2.0;;
45382;SDS011;42455;51.660;5.824;2023-03-31T02:27:56;5.0;;;2.0;;
45382;SDS011;42455;51.660;5.824;2023-03-31T02:33:02;7.0;;;2.0;;
45382;SDS011;42455;51.660;5.824;2023-03-31T02:38:09;7.0;;;2.0;;
45382;SDS011;42455;51.660;5.824;2023-03-31T02:43:15;8.0;;;3.0;;
45382;SDS011;42455;51.660;5.824;2023-03-31T02:48:26;9.0;;;3.0;;
45382;SDS011;42455;51.660;5.824;2023-03-31T02:53:47;7.0;;;2.0;;
45382;SDS011;42455;51.660;5.824;2023-03-31T02:59:19;7.0;;;2.0;;
45382;SDS011;42455;51.660;5.824;2023-03-31T03:04:56;9.0;;;3.0;;
45382;SDS011;42455;51.660;5.824;2023-03-31T03:10:08;7.0;;;2.0;;
45382;SDS011;42455;51.660;5.824;2023-03-31T03:15:05;10.5;;;3.0;;
45382;SDS011;42455;51.660;5.824;2023-03-31T03:18:58;6.0;;;2.0;;
45382;SDS011;42455;51.660;5.824;2023-03-31T03:24:04;6.0;;;2.0;;
45382;SDS011;42455;51.660;5.824;2023-03-31T03:29:09;7.0;;;2.0;;
45382;SDS011;42455;51.660;5.824;2023-03-31T03:34:15;7.0;;;2.0;;
45382;SDS011;42455;51.660;5.824;2023-03-31T03:39:21;10.0;;;2.0;;
45382;SDS011;42455;51.660;5.824;2023-03-31T03:44:27;9.0;;;3.0;;
45382;SDS011;42455;51.660;5.824;2023-03-31T03:49:34;8.0;;;3.0;;
45382;SDS011;42455;51.660;5.824;2023-03-31T03:54:40;10.0;;;3.0;;
45382;SDS011;42455;51.660;5.824;2023-03-31T03:59:46;9.0;;;2.0;;
45382;SDS011;42455;51.660;5.824;2023-03-31T04:04:52;7.0;;;2.0;;
45382;SDS011;42455;51.660;5.824;2023-03-31T04:09:58;6.5;;;2.0;;
45382;SDS011;42455;51.660;5.824;2023-03-31T04:15:04;7.5;;;2.0;;
45382;SDS011;42455;51.660;5.824;2023-03-31T04:20:11;7.0;;;2.0;;
45382;SDS011;42455;51.660;5.824;2023-03-31T04:25:17;7.0;;;2.0;;
45382;SDS011;42455;51.660;5.824;2023-03-31T04:30:24;8.0;;;2.0;;
45382;SDS011;42455;51.660;5.824;2023-03-31T04:35:30;6.0;;;2.0;;
45382;SDS011;42455;51.660;5.824;2023-03-31T04:40:36;7.0;;;2.0;;
45382;SDS011;42455;51.660;5.824;2023-03-31T04:45:42;6.0;;;2.0;;
45382;SDS011;42455;51.660;5.824;2023-03-31T04:50:48;6.0;;;2.0;;
45382;SDS011;42455;51.660;5.824;2023-03-31T04:55:54;6.0;;;2.0;;
45382;SDS011;42455;51.660;5.824;2023-03-31T05:01:00;6.0;;;2.0;;
45382;SDS011;42455;51.660;5.824;2023-03-31T05:06:07;7.0;;;2.0;;
45382;SDS011;42455;51.660;5.824;2023-03-31T05:11:13;6.0;;;2.0;;
45382;SDS011;42455;51.660;5.824;2023-03-31T05:16:18;4.5;;;2.0;;
45382;SDS011;42455;51.660;5.824;2023-03-31T05:21:24;6.0;;;2.0;;
45382;SDS011;42455;51.660;5.824;2023-03-31T05:26:31;7.0;;;2.0;;
45382;SDS011;42455;51.660;5.824;2023-03-31T05:31:37;4.0;;;2.0;;
45382;SDS011;42455;51.660;5.824;2023-03-31T05:36:43;6.0;;;2.0;;
45382;SDS011;42455;51.660;5.824;2023-03-31T05:41:49;4.0;;;1.0;;
45382;SDS011;42455;51.660;5.824;2023-03-31T05:46:55;5.0;;;1.0;;
45382;SDS011;42455;51.660;5.824;2023-03-31T05:52:02;4.0;;;1.0;;
45382;SDS011;42455;51.660;5.824;2023-03-31T05:57:08;4.0;;;1.0;;
45382;SDS011;42455;51.660;5.824;2023-03-31T06:02:14;4.0;;;2.0;;
45382;SDS011;42455;51.660;5.824;2023-03-31T06:07:20;5.0;;;1.0;;
45382;SDS011;42455;51.660;5.824;2023-03-31T06:12:26;6.0;;;2.0;;
45382;SDS011;42455;51.660;5.824;2023-03-31T06:17:33;6.0;;;1.0;;
45382;SDS011;42455;51.660;5.824;2023-03-31T06:22:39;4.0;;;1.0;;
45382;SDS011;42455;51.660;5.824;2023-03-31T06:27:45;3.0;;;1.0;;
45382;SDS011;42455;51.660;5.824;2023-03-31T06:32:51;5.0;;;1.0;;
45382;SDS011;42455;51.660;5.824;2023-03-31T06:37:57;4.0;;;1.0;;
45382;SDS011;42455;51.660;5.824;2023-03-31T06:43:04;5.0;;;2.0;;
45382;SDS011;42455;51.660;5.824;2023-03-31T06:53:16;5.0;;;2.0;;
45382;SDS011;42455;51.660;5.824;2023-03-31T06:58:22;3.0;;;1.0;;
45382;SDS011;42455;51.660;5.824;2023-03-31T07:03:29;5.0;;;2.0;;
45382;SDS011;42455;51.660;5.824;2023-03-31T07:08:35;5.0;;;2.0;;
45382;SDS011;42455;51.660;5.824;2023-03-31T07:13:40;5.0;;;2.0;;
45382;SDS011;42455;51.660;5.824;2023-03-31T07:18:46;5.0;;;2.0;;
45382;SDS011;42455;51.660;5.824;2023-03-31T07:23:51;6.0;;;2.0;;
45382;SDS011;42455;51.660;5.824;2023-03-31T07:28:58;7.0;;;2.0;;
45382;SDS011;42455;51.660;5.824;2023-03-31T07:34:04;6.0;;;2.0;;
45382;SDS011;42455;51.660;5.824;2023-03-31T07:39:10;8.0;;;2.0;;
45382;SDS011;42455;51.660;5.824;2023-03-31T07:44:16;7.0;;;2.0;;
45382;SDS011;42455;51.660;5.824;2023-03-31T07:49:22;7.0;;;2.0;;
45382;SDS011;42455;51.660;5.824;2023-03-31T07:54:29;5.0;;;2.0;;
45382;SDS011;42455;51.660;5.824;2023-03-31T07:59:35;5.0;;;2.0;;
45382;SDS011;42455;51.660;5.824;2023-03-31T08:04:41;6.0;;;2.0;;
45382;SDS011;42455;51.660;5.824;2023-03-31T08:09:47;7.0;;;2.0;;
45382;SDS011;42455;51.660;5.824;2023-03-31T08:14:53;6.0;;;2.0;;
45382;SDS011;42455;51.660;5.824;2023-03-31T08:20:00;5.0;;;1.0;;
45382;SDS011;42455;51.660;5.824;2023-03-31T08:25:06;5.0;;;2.0;;
45382;SDS011;42455;51.660;5.824;2023-03-31T08:30:12;6.0;;;2.0;;
45382;SDS011;42455;51.660;5.824;2023-03-31T08:35:18;6.0;;;2.0;;
45382;SDS011;42455;51.660;5.824;2023-03-31T08:40:29;8.0;;;3.0;;
45382;SDS011;42455;51.660;5.824;2023-03-31T08:45:31;7.0;;;2.0;;
45382;SDS011;42455;51.660;5.824;2023-03-31T08:50:43;6.0;;;2.5;;
45382;SDS011;42455;51.660;5.824;2023-03-31T08:55:47;8.0;;;3.0;;
45382;SDS011;42455;51.660;5.824;2023-03-31T09:01:07;8.0;;;2.5;;
45382;SDS011;42455;51.660;5.824;2023-03-31T09:06:13;8.0;;;3.0;;
45382;SDS011;42455;51.660;5.824;2023-03-31T09:11:13;9.0;;;3.0;;
45382;SDS011;42455;51.660;5.824;2023-03-31T09:16:13;8.5;;;3.0;;
45382;SDS011;42455;51.660;5.824;2023-03-31T09:21:13;9.0;;;3.0;;
45382;SDS011;42455;51.660;5.824;2023-03-31T09:26:21;10.0;;;3.0;;
45382;SDS011;42455;51.660;5.824;2023-03-31T09:31:24;11.0;;;3.0;;
45382;SDS011;42455;51.660;5.824;2023-03-31T09:36:29;9.0;;;3.0;;
45382;SDS011;42455;51.660;5.824;2023-03-31T09:41:43;9.0;;;3.0;;
45382;SDS011;42455;51.660;5.824;2023-03-31T09:46:42;10.0;;;3.0;;
45382;SDS011;42455;51.660;5.824;2023-03-31T09:51:48;10.0;;;3.0;;
45382;SDS011;42455;51.660;5.824;2023-03-31T09:56:54;11.0;;;3.0;;
45382;SDS011;42455;51.660;5.824;2023-03-31T10:02:00;9.0;;;2.0;;
45382;SDS011;42455;51.660;5.824;2023-03-31T10:07:06;9.0;;;3.0;;
45382;SDS011;42455;51.660;5.824;2023-03-31T10:12:18;8.0;;;2.0;;
45382;SDS011;42455;51.660;5.824;2023-03-31T10:17:20;10.0;;;3.0;;
45382;SDS011;42455;51.660;5.824;2023-03-31T10:22:26;8.0;;;2.0;;
45382;SDS011;42455;51.660;5.824;2023-03-31T10:27:31;9.0;;;3.0;;
45382;SDS011;42455;51.660;5.824;2023-03-31T10:32:38;8.0;;;2.0;;
45382;SDS011;42455;51.660;5.824;2023-03-31T10:37:43;7.0;;;2.0;;
45382;SDS011;42455;51.660;5.824;2023-03-31T10:42:57;7.0;;;2.0;;
45382;SDS011;42455;51.660;5.824;2023-03-31T10:47:59;5.0;;;2.0;;
45382;SDS011;42455;51.660;5.824;2023-03-31T10:53:03;6.0;;;2.0;;
45382;SDS011;42455;51.660;5.824;2023-03-31T10:58:12;6.0;;;2.0;;
45382;SDS011;42455;51.660;5.824;2023-03-31T11:04:46;6.0;;;2.0;;
45382;SDS011;42455;51.660;5.824;2023-03-31T11:08:58;7.0;;;2.0;;
45382;SDS011;42455;51.660;5.824;2023-03-31T11:14:39;6.0;;;2.0;;
45382;SDS011;42455;51.660;5.824;2023-03-31T11:19:18;7.0;;;2.0;;
45382;SDS011;42455;51.660;5.824;2023-03-31T11:24:40;6.0;;;2.0;;
45382;SDS011;42455;51.660;5.824;2023-03-31T11:29:42;6.0;;;2.0;;
45382;SDS011;42455;51.660;5.824;2023-03-31T11:35:20;7.0;;;2.0;;
45382;SDS011;42455;51.660;5.824;2023-03-31T11:41:04;7.0;;;2.0;;
45382;SDS011;42455;51.660;5.824;2023-03-31T11:44:12;7.0;;;2.0;;
45382;SDS011;42455;51.660;5.824;2023-03-31T11:49:16;6.0;;;2.0;;
45382;SDS011;42455;51.660;5.824;2023-03-31T11:54:16;7.5;;;2.0;;
45382;SDS011;42455;51.660;5.824;2023-03-31T11:59:21;7.0;;;2.0;;
45382;SDS011;42455;51.660;5.824;2023-03-31T12:04:34;9.0;;;2.0;;
45382;SDS011;42455;51.660;5.824;2023-03-31T12:09:43;7.0;;;2.0;;
45382;SDS011;42455;51.660;5.824;2023-03-31T12:14:42;8.0;;;3.0;;
45382;SDS011;42455;51.660;5.824;2023-03-31T12:19:46;7.0;;;2.0;;
45382;SDS011;42455;51.660;5.824;2023-03-31T12:24:52;7.0;;;2.0;;
45382;SDS011;42455;51.660;5.824;2023-03-31T12:29:59;7.0;;;2.0;;
45382;SDS011;42455;51.660;5.824;2023-03-31T12:35:20;7.0;;;2.0;;
45382;SDS011;42455;51.660;5.824;2023-03-31T12:41:07;6.0;;;2.0;;
45382;SDS011;42455;51.660;5.824;2023-03-31T12:45:48;5.0;;;2.0;;
45382;SDS011;42455;51.660;5.824;2023-03-31T12:52:00;6.0;;;2.0;;
45382;SDS011;42455;51.660;5.824;2023-03-31T12:55:59;4.0;;;2.0;;
45382;SDS011;42455;51.660;5.824;2023-03-31T13:00:35;5.0;;;1.0;;
45382;SDS011;42455;51.660;5.824;2023-03-31T13:05:47;6.0;;;2.0;;
45382;SDS011;42455;51.660;5.824;2023-03-31T13:10:58;5.0;;;2.0;;
45382;SDS011;42455;51.660;5.824;2023-03-31T13:15:54;5.0;;;2.0;;
45382;SDS011;42455;51.660;5.824;2023-03-31T13:21:00;6.0;;;2.0;;
45382;SDS011;42455;51.660;5.824;2023-03-31T13:26:23;7.0;;;2.0;;
45382;SDS011;42455;51.660;5.824;2023-03-31T13:31:12;6.0;;;2.0;;
45382;SDS011;42455;51.660;5.824;2023-03-31T13:36:37;5.0;;;2.0;;
45382;SDS011;42455;51.660;5.824;2023-03-31T13:43:03;6.0;;;2.0;;
45382;SDS011;42455;51.660;5.824;2023-03-31T13:48:49;6.0;;;2.0;;
45382;SDS011;42455;51.660;5.824;2023-03-31T13:53:23;5.0;;;1.0;;
45382;SDS011;42455;51.660;5.824;2023-03-31T14:00:17;4.0;;;1.0;;
45382;SDS011;42455;51.660;5.824;2023-03-31T14:05:32;4.0;;;1.0;;
45382;SDS011;42455;51.660;5.824;2023-03-31T14:08:51;3.0;;;1.0;;
45382;SDS011;42455;51.660;5.824;2023-03-31T14:12:01;5.0;;;1.0;;
45382;SDS011;42455;51.660;5.824;2023-03-31T14:17:07;5.0;;;1.0;;
45382;SDS011;42455;51.660;5.824;2023-03-31T14:22:39;4.0;;;1.0;;
45382;SDS011;42455;51.660;5.824;2023-03-31T14:28:09;4.0;;;1.0;;
45382;SDS011;42455;51.660;5.824;2023-03-31T14:32:49;4.0;;;1.0;;
45382;SDS011;42455;51.660;5.824;2023-03-31T14:37:31;3.0;;;1.0;;
45382;SDS011;42455;51.660;5.824;2023-03-31T14:42:38;4.0;;;1.0;;
45382;SDS011;42455;51.660;5.824;2023-03-31T14:47:52;5.0;;;1.0;;
45382;SDS011;42455;51.660;5.824;2023-03-31T14:52:50;3.0;;;1.0;;
45382;SDS011;42455;51.660;5.824;2023-03-31T14:57:58;3.0;;;1.0;;
45382;SDS011;42455;51.660;5.824;2023-03-31T15:03:02;3.0;;;1.0;;
45382;SDS011;42455;51.660;5.824;2023-03-31T15:08:10;3.0;;;1.0;;
45382;SDS011;42455;51.660;5.824;2023-03-31T15:13:15;3.0;;;1.0;;
45382;SDS011;42455;51.660;5.824;2023-03-31T15:18:24;3.0;;;1.0;;
45382;SDS011;42455;51.660;5.824;2023-03-31T15:23:28;1.0;;;0.0;;
45382;SDS011;42455;51.660;5.824;2023-03-31T15:28:37;2.0;;;0.0;;
45382;SDS011;42455;51.660;5.824;2023-03-31T15:33:39;1.0;;;0.0;;
45382;SDS011;42455;51.660;5.824;2023-03-31T15:38:45;2.0;;;0.0;;
45382;SDS011;42455;51.660;5.824;2023-03-31T15:44:03;0.0;;;0.0;;
45382;SDS011;42455;51.660;5.824;2023-03-31T15:48:57;0.0;;;0.0;;
45382;SDS011;42455;51.660;5.824;2023-03-31T15:54:10;1.0;;;0.0;;
45382;SDS011;42455;51.660;5.824;2023-03-31T15:59:19;1.0;;;0.0;;
45382;SDS011;42455;51.660;5.824;2023-03-31T16:04:16;1.0;;;0.0;;
45382;SDS011;42455;51.660;5.824;2023-03-31T16:09:24;1.0;;;0.0;;
45382;SDS011;42455;51.660;5.824;2023-03-31T16:14:29;1.0;;;0.0;;
45382;SDS011;42455;51.660;5.824;2023-03-31T16:19:41;2.0;;;0.0;;
45382;SDS011;42455;51.660;5.824;2023-03-31T16:24:41;1.0;;;0.0;;
45382;SDS011;42455;51.660;5.824;2023-03-31T16:29:47;2.0;;;0.0;;
45382;SDS011;42455;51.660;5.824;2023-03-31T16:34:54;0.0;;;0.0;;
45382;SDS011;42455;51.660;5.824;2023-03-31T16:39:59;1.5;;;0.0;;
45382;SDS011;42455;51.660;5.824;2023-03-31T16:45:07;1.0;;;0.0;;
45382;SDS011;42455;51.660;5.824;2023-03-31T16:50:12;1.0;;;1.0;;
45382;SDS011;42455;51.660;5.824;2023-03-31T16:55:18;2.0;;;1.0;;
45382;SDS011;42455;51.660;5.824;2023-03-31T17:00:25;3.0;;;1.0;;
45382;SDS011;42455;51.660;5.824;2023-03-31T17:05:31;2.0;;;1.0;;
45382;SDS011;42455;51.660;5.824;2023-03-31T17:10:38;2.0;;;1.0;;
45382;SDS011;42455;51.660;5.824;2023-03-31T17:15:42;1.5;;;0.0;;
45382;SDS011;42455;51.660;5.824;2023-03-31T17:20:48;2.0;;;0.0;;
45382;SDS011;42455;51.660;5.824;2023-03-31T17:25:53;1.0;;;0.0;;
45382;SDS011;42455;51.660;5.824;2023-03-31T17:31:00;1.0;;;0.0;;
45382;SDS011;42455;51.660;5.824;2023-03-31T17:36:05;1.0;;;0.0;;
45382;SDS011;42455;51.660;5.824;2023-03-31T17:41:11;2.0;;;1.0;;
45382;SDS011;42455;51.660;5.824;2023-03-31T17:46:17;2.0;;;1.0;;
45382;SDS011;42455;51.660;5.824;2023-03-31T17:51:24;2.5;;;0.0;;
45382;SDS011;42455;51.660;5.824;2023-03-31T17:56:30;3.0;;;1.0;;
45382;SDS011;42455;51.660;5.824;2023-03-31T18:01:36;2.0;;;0.0;;
45382;SDS011;42455;51.660;5.824;2023-03-31T18:06:42;3.0;;;1.0;;
45382;SDS011;42455;51.660;5.824;2023-03-31T18:11:48;2.0;;;1.0;;
45382;SDS011;42455;51.660;5.824;2023-03-31T18:16:55;2.0;;;1.0;;
45382;SDS011;42455;51.660;5.824;2023-03-31T18:22:01;2.0;;;1.0;;
45382;SDS011;42455;51.660;5.824;2023-03-31T18:27:07;1.0;;;1.0;;
45382;SDS011;42455;51.660;5.824;2023-03-31T18:32:13;2.0;;;1.0;;
45382;SDS011;42455;51.660;5.824;2023-03-31T18:37:19;3.0;;;1.0;;
45382;SDS011;42455;51.660;5.824;2023-03-31T18:42:26;1.0;;;1.0;;
45382;SDS011;42455;51.660;5.824;2023-03-31T18:47:32;3.0;;;1.0;;
45382;SDS011;42455;51.660;5.824;2023-03-31T18:52:38;3.0;;;1.0;;
45382;SDS011;42455;51.660;5.824;2023-03-31T18:57:44;2.0;;;1.0;;
45382;SDS011;42455;51.660;5.824;2023-03-31T19:02:50;2.5;;;1.0;;
45382;SDS011;42455;51.660;5.824;2023-03-31T19:07:57;3.0;;;1.0;;
45382;SDS011;42455;51.660;5.824;2023-03-31T19:13:03;3.0;;;1.0;;
45382;SDS011;42455;51.660;5.824;2023-03-31T19:18:10;3.0;;;1.0;;
45382;SDS011;42455;51.660;5.824;2023-03-31T19:23:14;2.0;;;1.0;;
45382;SDS011;42455;51.660;5.824;2023-03-31T19:28:21;2.0;;;1.0;;
45382;SDS011;42455;51.660;5.824;2023-03-31T19:33:26;3.0;;;1.0;;
45382;SDS011;42455;51.660;5.824;2023-03-31T19:38:32;2.0;;;1.0;;
45382;SDS011;42455;51.660;5.824;2023-03-31T19:43:38;2.0;;;1.0;;
45382;SDS011;42455;51.660;5.824;2023-03-31T19:48:44;4.0;;;1.0;;
45382;SDS011;42455;51.660;5.824;2023-03-31T19:53:50;2.0;;;1.0;;
45382;SDS011;42455;51.660;5.824;2023-03-31T19:58:57;2.0;;;1.0;;
45382;SDS011;42455;51.660;5.824;2023-03-31T20:04:03;3.0;;;1.0;;
45382;SDS011;42455;51.660;5.824;2023-03-31T20:09:09;3.0;;;1.0;;
45382;SDS011;42455;51.660;5.824;2023-03-31T20:14:15;2.0;;;1.0;;
45382;SDS011;42455;51.660;5.824;2023-03-31T20:19:22;3.0;;;1.0;;
45382;SDS011;42455;51.660;5.824;2023-03-31T20:24:28;2.0;;;1.0;;
45382;SDS011;42455;51.660;5.824;2023-03-31T20:29:34;3.5;;;1.0;;
45382;SDS011;42455;51.660;5.824;2023-03-31T20:34:41;3.0;;;1.0;;
45382;SDS011;42455;51.660;5.824;2023-03-31T20:39:46;4.0;;;1.0;;
45382;SDS011;42455;51.660;5.824;2023-03-31T20:44:53;2.0;;;1.0;;
45382;SDS011;42455;51.660;5.824;2023-03-31T20:49:59;4.0;;;1.0;;
45382;SDS011;42455;51.660;5.824;2023-03-31T20:55:06;3.0;;;1.0;;
45382;SDS011;42455;51.660;5.824;2023-03-31T21:00:12;5.0;;;2.0;;
45382;SDS011;42455;51.660;5.824;2023-03-31T21:05:17;4.0;;;2.0;;
45382;SDS011;42455;51.660;5.824;2023-03-31T21:10:24;3.0;;;2.0;;
45382;SDS011;42455;51.660;5.824;2023-03-31T21:15:30;5.0;;;2.0;;
45382;SDS011;42455;51.660;5.824;2023-03-31T21:20:35;5.0;;;2.0;;
45382;SDS011;42455;51.660;5.824;2023-03-31T21:25:44;5.0;;;2.0;;
45382;SDS011;42455;51.660;5.824;2023-03-31T21:30:47;5.0;;;2.0;;
45382;SDS011;42455;51.660;5.824;2023-03-31T21:35:53;5.0;;;2.0;;
45382;SDS011;42455;51.660;5.824;2023-03-31T21:41:02;4.0;;;2.0;;
45382;SDS011;42455;51.660;5.824;2023-03-31T21:46:06;4.0;;;2.0;;
45382;SDS011;42455;51.660;5.824;2023-03-31T21:51:11;4.0;;;2.0;;
45382;SDS011;42455;51.660;5.824;2023-03-31T21:56:18;4.5;;;2.0;;
45382;SDS011;42455;51.660;5.824;2023-03-31T22:01:24;5.0;;;2.0;;
45382;SDS011;42455;51.660;5.824;2023-03-31T22:06:30;5.0;;;2.0;;
45382;SDS011;42455;51.660;5.824;2023-03-31T22:11:36;4.0;;;2.0;;
45382;SDS011;42455;51.660;5.824;2023-03-31T22:16:42;4.0;;;2.0;;
45382;SDS011;42455;51.660;5.824;2023-03-31T22:21:49;4.0;;;2.0;;
45382;SDS011;42455;51.660;5.824;2023-03-31T22:26:55;5.5;;;2.0;;
45382;SDS011;42455;51.660;5.824;2023-03-31T22:32:01;5.0;;;2.0;;
45382;SDS011;42455;51.660;5.824;2023-03-31T22:37:07;3.5;;;1.5;;
45382;SDS011;42455;51.660;5.824;2023-03-31T22:42:13;6.0;;;2.0;;
45382;SDS011;42455;51.660;5.824;2023-03-31T22:47:20;5.0;;;1.0;;
45382;SDS011;42455;51.660;5.824;2023-03-31T22:52:26;3.0;;;2.0;;
45382;SDS011;42455;51.660;5.824;2023-03-31T22:57:32;4.0;;;1.0;;
45382;SDS011;42455;51.660;5.824;2023-03-31T23:02:38;4.0;;;2.0;;
45382;SDS011;42455;51.660;5.824;2023-03-31T23:07:45;5.0;;;1.5;;
45382;SDS011;42455;51.660;5.824;2023-03-31T23:12:51;4.0;;;1.0;;
45382;SDS011;42455;51.660;5.824;2023-03-31T23:17:56;3.0;;;1.0;;
45382;SDS011;42455;51.660;5.824;2023-03-31T23:23:02;4.0;;;1.0;;
45382;SDS011;42455;51.660;5.824;2023-03-31T23:28:08;2.0;;;1.0;;
45382;SDS011;42455;51.660;5.824;2023-03-31T23:33:14;3.0;;;1.0;;
45382;SDS011;42455;51.660;5.824;2023-03-31T23:38:20;3.0;;;1.0;;
45382;SDS011;42455;51.660;5.824;2023-03-31T23:43:26;3.0;;;1.0;;
45382;SDS011;42455;51.660;5.824;2023-03-31T23:48:32;3.0;;;1.0;;
45382;SDS011;42455;51.660;5.824;2023-03-31T23:53:38;3.0;;;1.0;;
45382;SDS011;42455;51.660;5.824;2023-03-31T23:58:45;2.0;;;1.0;;
